Time;durP1;ratioP1;P1;durP2;ratioP2;P2;SDS_P1;SDS_P2;PMS_P1;PMS_P2;Temp;Humidity;BMP_temperature;BMP_pressure;BME280_temperature;BME280_humidity;BME280_pressure;Samples;Min_cycle;Max_cycle;Signal;HPM_P1;HPM_P2
2023/09/16 00:01:33;;;;;;;6.70;5.20;;;17.70;98.00;;;;;;5020801;28;20013;-86
2023/09/16 00:03:58;;;;;;;7.50;5.20;;;17.70;98.10;;;;;;5036295;28;20037;-85
2023/09/16 00:06:24;;;;;;;6.78;5.50;;;17.70;98.10;;;;;;5004423;28;20029;-85
2023/09/16 00:08:50;;;;;;;7.03;5.72;;;17.80;98.10;;;;;;5003973;28;20013;-85
2023/09/16 00:11:15;;;;;;;8.27;5.75;;;17.70;98.10;;;;;;5036828;28;20027;-85
2023/09/16 00:13:43;;;;;;;5.93;5.18;;;17.70;98.10;;;;;;5019796;28;20104;-85
2023/09/16 00:16:11;;;;;;;8.25;5.40;;;17.70;98.20;;;;;;5021503;28;20056;-85
2023/09/16 00:18:38;;;;;;;8.30;5.90;;;17.70;98.20;;;;;;5017619;28;20037;-85
2023/09/16 00:21:04;;;;;;;6.82;5.43;;;17.70;98.20;;;;;;5017486;28;20112;-85
2023/09/16 00:23:31;;;;;;;7.13;5.75;;;17.70;98.30;;;;;;5036384;28;20116;-84
2023/09/16 00:25:57;;;;;;;7.18;5.85;;;17.70;98.30;;;;;;5009115;28;20091;-86
2023/09/16 00:28:25;;;;;;;7.28;5.63;;;17.60;98.40;;;;;;5056852;28;20025;-85
2023/09/16 00:30:51;;;;;;;7.03;5.38;;;17.60;98.40;;;;;;5034763;28;20021;-85
2023/09/16 00:33:17;;;;;;;6.75;5.35;;;17.60;98.40;;;;;;5039486;28;20399;-84
2023/09/16 00:35:42;;;;;;;7.30;5.53;;;17.60;98.50;;;;;;5016350;28;20071;-85
2023/09/16 00:38:09;;;;;;;8.35;5.85;;;17.60;98.50;;;;;;5015564;28;20033;-86
2023/09/16 00:40:36;;;;;;;6.63;5.55;;;17.60;98.50;;;;;;5035562;28;20029;-85
2023/09/16 00:43:02;;;;;;;6.35;5.38;;;17.60;98.60;;;;;;5000850;28;20804;-86
2023/09/16 00:45:28;;;;;;;9.27;5.97;;;17.60;98.60;;;;;;5036380;28;20032;-85
2023/09/16 00:47:54;;;;;;;7.57;6.40;;;17.60;98.60;;;;;;5032581;28;20037;-85
2023/09/16 00:50:20;;;;;;;5.85;5.22;;;17.60;98.60;;;;;;5003311;28;20032;-86
2023/09/16 00:52:53;;;;;;;8.23;5.90;;;17.60;98.60;;;;;;5005826;28;20535;-85
2023/09/16 00:55:19;;;;;;;7.63;5.88;;;17.60;98.60;;;;;;5034779;28;20025;-85
2023/09/16 00:57:48;;;;;;;7.55;5.97;;;17.60;98.60;;;;;;5032036;28;20017;-85
2023/09/16 01:00:14;;;;;;;7.75;6.00;;;17.60;98.60;;;;;;5032425;28;20013;-85
2023/09/16 01:02:40;;;;;;;10.15;6.07;;;17.60;98.70;;;;;;5005709;28;20055;-85
2023/09/16 01:05:14;;;;;;;7.03;5.60;;;17.60;98.70;;;;;;5034374;28;20091;-86
2023/09/16 01:07:41;;;;;;;7.72;5.65;;;17.50;98.70;;;;;;5021794;28;20091;-85
2023/09/16 01:10:10;;;;;;;9.02;6.25;;;17.50;98.70;;;;;;5035663;28;20449;-85
2023/09/16 01:12:37;;;;;;;7.35;5.90;;;17.50;98.70;;;;;;5031821;28;20049;-85
2023/09/16 01:15:05;;;;;;;9.40;6.40;;;17.50;98.80;;;;;;5037423;28;20031;-85
2023/09/16 01:17:36;;;;;;;6.70;6.00;;;17.50;98.80;;;;;;5036721;28;20028;-85
2023/09/16 01:20:06;;;;;;;9.48;6.32;;;17.50;98.80;;;;;;5032710;28;20024;-85
2023/09/16 01:22:35;;;;;;;6.15;5.45;;;17.50;98.90;;;;;;5039102;28;20048;-85
2023/09/16 01:25:06;;;;;;;6.18;5.45;;;17.50;98.90;;;;;;5042803;28;20029;-85
2023/09/16 01:27:32;;;;;;;6.63;5.97;;;17.50;98.90;;;;;;5045303;28;20093;-85
2023/09/16 01:29:59;;;;;;;7.32;6.03;;;17.40;98.90;;;;;;5077933;28;20014;-84
2023/09/16 01:32:31;;;;;;;9.45;6.15;;;17.40;98.90;;;;;;5076589;28;20017;-84
2023/09/16 01:34:59;;;;;;;7.10;6.40;;;17.50;99.00;;;;;;5059627;28;20017;-85
2023/09/16 01:37:25;;;;;;;8.25;6.80;;;17.50;99.00;;;;;;5053545;28;20029;-85
2023/09/16 01:39:59;;;;;;;9.02;6.57;;;17.50;99.00;;;;;;5052402;28;20021;-84
2023/09/16 01:42:28;;;;;;;6.82;6.07;;;17.40;99.00;;;;;;5038559;28;20131;-85
2023/09/16 01:44:54;;;;;;;8.00;6.40;;;17.40;99.00;;;;;;5040720;28;20103;-85
2023/09/16 01:47:21;;;;;;;8.93;6.30;;;17.40;99.10;;;;;;5020528;28;20108;-85
2023/09/16 01:49:47;;;;;;;6.88;6.15;;;17.30;99.10;;;;;;5032581;28;20033;-85
2023/09/16 01:52:16;;;;;;;7.95;6.35;;;17.40;99.10;;;;;;5034839;28;20060;-85
2023/09/16 01:54:42;;;;;;;8.45;6.45;;;17.30;99.10;;;;;;5033071;28;20025;-85
2023/09/16 01:57:07;;;;;;;7.15;5.93;;;17.30;99.10;;;;;;5052324;28;20036;-84
2023/09/16 01:59:33;;;;;;;7.78;6.03;;;17.30;99.10;;;;;;5035581;28;20063;-85
2023/09/16 02:01:59;;;;;;;7.65;6.43;;;17.20;99.10;;;;;;5017457;28;20021;-85
2023/09/16 02:04:24;;;;;;;7.53;6.13;;;17.30;99.20;;;;;;5022100;28;20075;-84
2023/09/16 02:06:53;;;;;;;7.72;6.57;;;17.30;99.20;;;;;;5008785;28;20041;-85
2023/09/16 02:09:18;;;;;;;8.68;5.97;;;17.30;99.20;;;;;;5030407;28;20091;-85
2023/09/16 02:11:44;;;;;;;8.57;6.50;;;17.20;99.20;;;;;;5014692;28;20047;-85
2023/09/16 02:14:12;;;;;;;10.50;7.18;;;17.20;99.20;;;;;;5023362;28;20091;-85
2023/09/16 02:16:38;;;;;;;9.23;6.38;;;17.20;99.30;;;;;;5015331;28;20417;-85
2023/09/16 02:19:04;;;;;;;8.90;6.38;;;17.20;99.30;;;;;;5028810;28;20045;-85
2023/09/16 02:21:30;;;;;;;7.63;6.82;;;17.10;99.30;;;;;;5023196;28;20104;-85
2023/09/16 02:23:56;;;;;;;8.07;6.55;;;17.10;99.40;;;;;;5017095;28;20053;-84
2023/09/16 02:26:21;;;;;;;8.43;6.38;;;17.10;99.40;;;;;;5034871;28;20088;-86
2023/09/16 02:28:47;;;;;;;7.75;6.18;;;17.10;99.40;;;;;;5023134;28;20034;-85
2023/09/16 02:31:12;;;;;;;7.68;6.88;;;17.10;99.40;;;;;;5034884;28;20018;-85
2023/09/16 02:33:38;;;;;;;7.40;6.30;;;17.00;99.40;;;;;;5033894;28;20041;-85
2023/09/16 02:36:04;;;;;;;7.65;6.53;;;17.00;99.50;;;;;;5034263;28;20036;-85
2023/09/16 02:38:30;;;;;;;8.88;7.43;;;17.00;99.50;;;;;;5035468;28;20024;-84
2023/09/16 02:40:55;;;;;;;10.05;6.80;;;17.00;99.50;;;;;;5016596;28;20030;-85
2023/09/16 02:43:21;;;;;;;8.55;7.05;;;16.90;99.50;;;;;;5014834;28;20026;-85
2023/09/16 02:45:47;;;;;;;9.45;7.30;;;16.90;99.60;;;;;;5034905;28;20027;-85
2023/09/16 02:48:17;;;;;;;8.25;7.30;;;16.90;99.90;;;;;;5033351;28;20381;-85
2023/09/16 02:50:46;;;;;;;9.00;7.15;;;16.90;99.70;;;;;;5019236;28;20021;-85
2023/09/16 02:53:12;;;;;;;8.30;6.97;;;16.90;99.70;;;;;;5035937;28;20479;-85
2023/09/16 02:55:38;;;;;;;8.38;6.93;;;16.80;99.70;;;;;;5036480;28;20108;-85
2023/09/16 02:58:04;;;;;;;8.88;6.95;;;16.80;99.70;;;;;;5036448;28;20365;-85
2023/09/16 03:00:30;;;;;;;8.30;7.13;;;16.80;99.80;;;;;;5030180;28;20017;-85
2023/09/16 03:02:56;;;;;;;9.13;7.55;;;16.80;99.80;;;;;;5018237;28;20469;-85
2023/09/16 03:05:22;;;;;;;9.07;8.10;;;16.80;99.80;;;;;;5031001;28;20034;-85
2023/09/16 03:07:48;;;;;;;10.85;7.72;;;16.80;99.90;;;;;;5040162;28;20021;-84
2023/09/16 03:10:14;;;;;;;9.93;7.78;;;16.80;99.90;;;;;;5045850;28;20041;-84
2023/09/16 03:12:40;;;;;;;10.63;8.02;;;16.80;99.90;;;;;;5059723;28;20033;-85
2023/09/16 03:15:06;;;;;;;13.02;7.53;;;16.80;99.90;;;;;;5039402;28;20047;-82
2023/09/16 03:17:32;;;;;;;9.73;7.60;;;16.80;99.90;;;;;;5056905;28;20037;-85
2023/09/16 03:19:58;;;;;;;9.52;7.28;;;16.80;99.90;;;;;;5049640;28;20028;-85
2023/09/16 03:22:23;;;;;;;10.10;7.72;;;16.80;99.90;;;;;;5018847;28;20033;-85
2023/09/16 03:24:49;;;;;;;9.02;7.65;;;16.70;99.90;;;;;;5010418;28;20123;-86
2023/09/16 03:27:15;;;;;;;9.65;7.88;;;16.70;99.90;;;;;;5018209;28;20037;-85
2023/09/16 03:29:41;;;;;;;10.60;8.50;;;16.70;99.90;;;;;;5035838;28;20068;-85
2023/09/16 03:32:06;;;;;;;11.10;7.90;;;16.80;99.90;;;;;;5056296;28;20524;-85
2023/09/16 03:34:32;;;;;;;9.52;8.48;;;16.70;99.90;;;;;;5034195;28;20033;-84
2023/09/16 03:36:58;;;;;;;8.52;7.68;;;16.70;99.90;;;;;;5020821;28;20381;-85
2023/09/16 03:39:24;;;;;;;9.68;8.27;;;16.70;99.90;;;;;;5031002;28;20033;-83
2023/09/16 03:41:50;;;;;;;10.18;8.45;;;16.70;99.90;;;;;;5021199;28;20490;-85
2023/09/16 03:44:15;;;;;;;9.65;8.18;;;16.70;99.90;;;;;;5020887;28;20036;-84
2023/09/16 03:46:41;;;;;;;9.52;8.52;;;16.70;99.90;;;;;;5036660;28;20037;-84
2023/09/16 03:49:07;;;;;;;9.55;7.93;;;16.70;99.90;;;;;;5028986;28;20459;-83
2023/09/16 03:51:34;;;;;;;9.13;8.18;;;16.70;99.90;;;;;;5054319;28;20104;-85
2023/09/16 03:54:00;;;;;;;10.57;8.55;;;16.70;99.90;;;;;;5036473;28;20412;-85
2023/09/16 03:56:26;;;;;;;10.43;8.85;;;16.70;99.90;;;;;;5001386;28;20049;-85
2023/09/16 03:58:52;;;;;;;8.82;7.93;;;16.70;99.90;;;;;;5030413;28;20029;-84
2023/09/16 04:01:18;;;;;;;9.13;7.90;;;16.70;99.90;;;;;;5055292;28;20457;-86
2023/09/16 04:03:44;;;;;;;9.13;7.65;;;16.70;99.90;;;;;;5020104;28;20055;-85
2023/09/16 04:06:09;;;;;;;11.18;9.13;;;16.70;99.90;;;;;;5020573;28;20086;-85
2023/09/16 04:08:36;;;;;;;9.32;8.27;;;16.70;99.90;;;;;;5037270;28;20039;-85
2023/09/16 04:11:02;;;;;;;9.52;8.02;;;16.70;99.90;;;;;;5054741;28;20065;-85
2023/09/16 04:13:27;;;;;;;9.13;8.23;;;16.70;99.90;;;;;;5018124;28;20025;-85
2023/09/16 04:15:54;;;;;;;10.57;8.70;;;16.60;99.90;;;;;;5037954;28;20029;-85
2023/09/16 04:18:20;;;;;;;9.13;8.13;;;16.60;99.90;;;;;;5035983;28;20060;-85
2023/09/16 04:20:55;;;;;;;9.90;8.30;;;16.60;99.90;;;;;;5035839;28;20040;-85
2023/09/16 04:23:21;;;;;;;10.15;8.57;;;16.60;99.90;;;;;;5036098;28;20020;-85
2023/09/16 04:25:52;;;;;;;9.65;8.65;;;16.60;99.90;;;;;;5046012;28;20017;-85
2023/09/16 04:28:18;;;;;;;10.73;8.45;;;16.60;99.90;;;;;;5047033;28;20111;-85
2023/09/16 04:30:49;;;;;;;11.35;8.63;;;16.50;99.90;;;;;;5054957;28;20171;-85
2023/09/16 04:33:15;;;;;;;9.52;8.52;;;16.50;99.90;;;;;;5053471;28;20385;-85
2023/09/16 04:35:49;;;;;;;10.13;8.70;;;16.50;99.90;;;;;;5020527;28;20128;-84
2023/09/16 04:38:16;;;;;;;10.27;8.57;;;16.50;99.90;;;;;;5034566;28;20360;-86
2023/09/16 04:40:43;;;;;;;9.88;8.50;;;16.50;99.90;;;;;;5036804;28;20032;-85
2023/09/16 04:43:09;;;;;;;10.25;9.25;;;16.50;99.90;;;;;;5036350;28;20108;-85
2023/09/16 04:45:36;;;;;;;10.82;9.73;;;16.50;99.90;;;;;;5053944;28;20036;-85
2023/09/16 04:48:02;;;;;;;10.95;9.02;;;16.50;99.90;;;;;;5019494;28;20048;-85
2023/09/16 04:50:28;;;;;;;10.27;9.07;;;16.50;99.90;;;;;;5036683;28;20103;-85
2023/09/16 04:52:55;;;;;;;10.15;9.15;;;16.50;99.90;;;;;;5037581;28;20120;-85
2023/09/16 04:55:21;;;;;;;10.95;9.85;;;16.40;99.90;;;;;;5036526;28;20055;-84
2023/09/16 04:57:47;;;;;;;10.15;9.15;;;16.40;99.90;;;;;;5077649;28;20013;-84
2023/09/16 05:00:13;;;;;;;11.52;9.65;;;16.40;99.90;;;;;;5042279;28;20034;-84
2023/09/16 05:02:38;;;;;;;10.75;9.13;;;16.40;99.90;;;;;;5046682;28;20036;-84
2023/09/16 05:05:04;;;;;;;10.32;9.32;;;16.40;99.90;;;;;;5065870;28;20128;-85
2023/09/16 05:07:30;;;;;;;10.55;9.50;;;16.40;99.90;;;;;;5009337;28;20047;-85
2023/09/16 05:09:56;;;;;;;10.52;9.43;;;16.40;99.90;;;;;;5038715;28;20082;-85
2023/09/16 05:12:22;;;;;;;11.20;10.07;;;16.30;99.90;;;;;;5019554;28;20028;-84
2023/09/16 05:14:50;;;;;;;10.98;9.82;;;16.40;99.90;;;;;;5035392;28;20453;-84
2023/09/16 05:17:16;;;;;;;12.15;9.75;;;16.30;99.90;;;;;;5032083;28;20381;-84
2023/09/16 05:19:42;;;;;;;12.50;9.93;;;16.30;99.90;;;;;;5030168;28;20100;-86
2023/09/16 05:22:07;;;;;;;12.13;10.73;;;16.30;99.90;;;;;;5016968;28;20029;-85
2023/09/16 05:24:33;;;;;;;11.35;10.00;;;16.30;99.90;;;;;;5033984;28;20087;-84
2023/09/16 05:26:59;;;;;;;11.65;9.60;;;16.40;99.90;;;;;;5051803;28;20037;-84
2023/09/16 05:29:25;;;;;;;12.10;10.65;;;16.30;99.90;;;;;;5008349;28;20461;-85
2023/09/16 05:31:51;;;;;;;11.55;10.23;;;16.30;99.90;;;;;;4992219;28;20116;-85
2023/09/16 05:34:17;;;;;;;11.93;9.88;;;16.30;99.90;;;;;;5047787;28;20485;-84
2023/09/16 05:36:43;;;;;;;11.13;9.88;;;16.30;99.90;;;;;;5035541;28;20040;-85
2023/09/16 05:39:08;;;;;;;11.35;9.85;;;16.30;99.90;;;;;;5036418;28;20407;-85
2023/09/16 05:41:35;;;;;;;11.80;10.35;;;16.30;99.90;;;;;;5017925;28;20091;-84
2023/09/16 05:44:01;;;;;;;11.77;10.43;;;16.30;99.90;;;;;;5021176;28;20074;-85
2023/09/16 05:46:27;;;;;;;12.63;10.63;;;16.40;99.90;;;;;;5051263;28;20029;-85
2023/09/16 05:49:06;;;;;;;12.07;9.95;;;16.30;99.90;;;;;;4999665;28;20029;-85
2023/09/16 05:51:32;;;;;;;10.80;9.70;;;16.30;99.90;;;;;;5028378;28;20021;-85
2023/09/16 05:53:58;;;;;;;11.43;10.20;;;16.30;99.90;;;;;;5018707;28;20020;-85
2023/09/16 05:56:23;;;;;;;13.70;10.20;;;16.30;99.90;;;;;;5035259;28;20426;-85
2023/09/16 05:58:49;;;;;;;11.35;10.15;;;16.30;99.90;;;;;;5018857;28;20385;-85
2023/09/16 06:01:15;;;;;;;11.88;10.60;;;16.30;99.90;;;;;;5034227;28;20025;-85
2023/09/16 06:03:40;;;;;;;11.57;9.85;;;16.40;99.90;;;;;;5002027;28;20051;-85
2023/09/16 06:06:06;;;;;;;11.10;10.00;;;16.30;99.90;;;;;;5018846;28;20078;-85
2023/09/16 06:08:32;;;;;;;10.93;9.70;;;16.40;99.90;;;;;;5018608;28;20029;-85
2023/09/16 06:10:58;;;;;;;11.52;9.98;;;16.40;99.90;;;;;;5018519;28;20545;-85
2023/09/16 06:13:23;;;;;;;13.15;9.65;;;16.40;99.90;;;;;;5034920;28;20025;-84
2023/09/16 06:15:49;;;;;;;11.48;10.27;;;16.40;99.90;;;;;;5018869;28;20568;-85
2023/09/16 06:18:15;;;;;;;12.15;9.77;;;16.50;99.90;;;;;;5015102;28;20025;-85
2023/09/16 06:20:41;;;;;;;12.43;10.52;;;16.50;99.90;;;;;;5050462;28;20021;-85
2023/09/16 06:23:07;;;;;;;10.95;9.85;;;16.50;99.90;;;;;;5030725;28;20029;-85
2023/09/16 06:25:34;;;;;;;12.40;10.57;;;16.50;99.90;;;;;;5036667;28;20025;-85
2023/09/16 06:27:59;;;;;;;11.43;10.20;;;16.50;99.90;;;;;;5020217;28;20029;-84
2023/09/16 06:30:25;;;;;;;12.05;10.30;;;16.60;99.90;;;;;;5027400;28;20040;-85
2023/09/16 06:32:54;;;;;;;10.93;9.63;;;16.60;99.90;;;;;;5042919;28;20017;-84
2023/09/16 06:35:20;;;;;;;10.75;9.38;;;16.60;99.90;;;;;;5034004;28;20071;-84
2023/09/16 06:37:46;;;;;;;12.23;9.20;;;16.70;99.90;;;;;;5015405;28;20060;-85
2023/09/16 06:40:11;;;;;;;11.13;9.93;;;16.70;99.90;;;;;;5030028;28;20033;-85
2023/09/16 06:42:37;;;;;;;10.23;9.07;;;16.70;99.90;;;;;;5020858;28;20064;-84
2023/09/16 06:45:03;;;;;;;12.70;10.75;;;16.70;99.90;;;;;;5042592;28;20055;-84
2023/09/16 06:47:29;;;;;;;11.95;10.50;;;16.80;99.90;;;;;;5059039;28;20055;-83
2023/09/16 06:49:56;;;;;;;12.13;9.93;;;16.80;99.90;;;;;;5057602;28;20020;-85
2023/09/16 06:52:22;;;;;;;10.77;9.70;;;16.80;99.90;;;;;;5059608;28;20081;-84
2023/09/16 06:54:48;;;;;;;10.80;9.55;;;16.90;99.90;;;;;;5027041;28;20116;-86
2023/09/16 06:57:15;;;;;;;11.32;10.13;;;16.90;99.90;;;;;;5017882;28;20058;-85
2023/09/16 06:59:40;;;;;;;10.45;9.38;;;17.00;99.90;;;;;;5034037;28;20023;-86
2023/09/16 07:02:06;;;;;;;9.85;8.85;;;17.10;99.90;;;;;;5051771;28;20025;-86
2023/09/16 07:04:32;;;;;;;12.38;9.68;;;17.10;99.90;;;;;;5033712;28;20124;-85
2023/09/16 07:06:58;;;;;;;10.65;9.55;;;17.10;99.90;;;;;;5056055;28;20032;-85
2023/09/16 07:09:23;;;;;;;11.25;9.55;;;17.20;99.90;;;;;;5023289;28;20029;-84
2023/09/16 07:11:49;;;;;;;9.65;8.63;;;17.20;99.90;;;;;;5021517;28;20369;-84
2023/09/16 07:14:14;;;;;;;9.35;8.38;;;17.30;99.90;;;;;;5020746;28;20063;-84
2023/09/16 07:16:40;;;;;;;9.38;8.10;;;17.40;99.90;;;;;;5018814;28;20025;-85
2023/09/16 07:19:07;;;;;;;8.68;7.78;;;17.40;99.90;;;;;;5048157;28;20032;-85
2023/09/16 07:21:33;;;;;;;9.00;8.00;;;17.50;99.90;;;;;;5021569;28;20074;-83
2023/09/16 07:24:02;;;;;;;9.18;8.27;;;17.60;99.90;;;;;;5037439;28;20120;-84
2023/09/16 07:26:31;;;;;;;9.30;7.95;;;17.70;99.90;;;;;;5018585;28;20025;-84
2023/09/16 07:28:58;;;;;;;9.55;7.18;;;17.70;99.90;;;;;;5049734;28;20490;-84
2023/09/16 07:31:24;;;;;;;9.00;8.10;;;17.80;99.90;;;;;;5038839;28;20453;-84
2023/09/16 07:33:49;;;;;;;9.02;7.32;;;17.90;99.90;;;;;;5057587;28;20108;-84
2023/09/16 07:36:15;;;;;;;8.43;6.97;;;17.90;99.90;;;;;;5036572;28;20032;-84
2023/09/16 07:38:41;;;;;;;8.77;7.40;;;18.00;99.90;;;;;;5018058;28;20043;-84
2023/09/16 07:41:06;;;;;;;7.65;6.85;;;18.00;99.90;;;;;;5055620;28;20021;-84
2023/09/16 07:43:32;;;;;;;7.70;6.90;;;18.10;99.90;;;;;;5029073;28;20167;-84
2023/09/16 07:45:59;;;;;;;7.63;6.63;;;18.20;99.90;;;;;;5018705;28;20025;-84
2023/09/16 07:48:25;;;;;;;7.60;6.80;;;18.30;99.90;;;;;;5037554;28;20108;-85
2023/09/16 07:50:54;;;;;;;7.97;6.82;;;18.30;99.90;;;;;;5020649;28;20025;-84
2023/09/16 07:53:20;;;;;;;8.25;7.18;;;18.40;99.90;;;;;;5037566;28;20025;-84
2023/09/16 07:55:46;;;;;;;8.68;6.85;;;18.40;99.90;;;;;;5020551;28;20029;-84
2023/09/16 07:58:12;;;;;;;9.32;7.40;;;18.50;99.90;;;;;;5037510;28;20032;-85
2023/09/16 08:00:40;;;;;;;7.40;6.47;;;18.60;99.90;;;;;;5037489;28;20025;-83
2023/09/16 08:03:05;;;;;;;6.95;6.25;;;18.60;99.90;;;;;;5036904;28;20024;-85
2023/09/16 08:05:31;;;;;;;8.70;6.70;;;18.70;99.90;;;;;;5020481;28;20380;-84
2023/09/16 08:07:56;;;;;;;8.82;6.40;;;18.80;99.90;;;;;;5054713;28;20021;-84
2023/09/16 08:10:22;;;;;;;6.82;6.00;;;18.80;99.90;;;;;;5037006;28;20087;-84
2023/09/16 08:12:48;;;;;;;6.70;5.95;;;18.90;99.90;;;;;;5037081;28;20028;-85
2023/09/16 08:15:13;;;;;;;7.55;6.13;;;19.00;99.90;;;;;;5054923;28;20428;-84
2023/09/16 08:17:39;;;;;;;7.50;6.45;;;19.10;99.90;;;;;;5037405;28;20062;-85
2023/09/16 08:20:08;;;;;;;7.90;7.10;;;19.10;99.90;;;;;;5036700;28;20049;-84
2023/09/16 08:22:34;;;;;;;6.90;5.95;;;19.20;99.90;;;;;;5054200;28;20099;-84
2023/09/16 08:25:02;;;;;;;7.55;6.75;;;19.30;99.90;;;;;;5020750;28;20112;-85
2023/09/16 08:27:27;;;;;;;7.82;5.80;;;19.30;99.90;;;;;;5020938;28;20028;-84
2023/09/16 08:29:54;;;;;;;8.20;5.95;;;19.40;99.90;;;;;;5007360;28;20026;-85
2023/09/16 08:32:22;;;;;;;6.80;5.45;;;19.50;99.90;;;;;;5002800;28;20036;-85
2023/09/16 08:34:50;;;;;;;6.70;5.95;;;19.60;99.90;;;;;;5067457;28;20009;-84
2023/09/16 08:37:16;;;;;;;7.22;6.53;;;19.60;99.90;;;;;;5061825;28;20016;-86
2023/09/16 08:39:42;;;;;;;7.85;6.80;;;19.70;99.90;;;;;;5045326;28;20088;-84
2023/09/16 08:42:14;;;;;;;8.00;6.10;;;19.80;99.90;;;;;;5044129;28;20013;-84
2023/09/16 08:44:44;;;;;;;7.57;5.97;;;19.90;99.90;;;;;;5045430;28;20028;-85
2023/09/16 08:47:15;;;;;;;10.82;6.07;;;19.90;99.90;;;;;;5036771;28;20116;-86
2023/09/16 08:49:47;;;;;;;6.82;5.63;;;20.00;99.90;;;;;;5036928;28;20036;-86
2023/09/16 08:52:16;;;;;;;6.88;5.60;;;20.10;99.90;;;;;;5054242;28;20048;-85
2023/09/16 08:54:45;;;;;;;7.63;5.28;;;20.10;99.90;;;;;;5036007;28;20047;-85
2023/09/16 08:57:12;;;;;;;9.45;6.88;;;20.10;99.90;;;;;;5046429;28;20088;-85
2023/09/16 08:59:39;;;;;;;7.30;5.72;;;20.20;99.80;;;;;;5019938;28;20029;-85
2023/09/16 09:02:05;;;;;;;7.30;5.82;;;20.30;99.80;;;;;;5053951;28;20049;-85
2023/09/16 09:04:31;;;;;;;8.20;6.32;;;20.40;99.70;;;;;;5016241;28;20111;-85
2023/09/16 09:06:59;;;;;;;7.35;6.15;;;20.40;99.60;;;;;;5016299;28;20346;-85
2023/09/16 09:09:25;;;;;;;7.07;6.13;;;20.50;99.50;;;;;;5032619;28;20406;-85
2023/09/16 09:11:52;;;;;;;11.10;6.93;;;20.50;99.40;;;;;;5032177;28;20113;-84
2023/09/16 09:14:22;;;;;;;7.93;5.72;;;20.60;99.40;;;;;;5031912;28;20034;-85
2023/09/16 09:16:48;;;;;;;10.10;7.30;;;20.70;99.30;;;;;;5032155;28;20029;-83
2023/09/16 09:19:15;;;;;;;7.25;6.30;;;20.70;99.20;;;;;;5033873;28;20100;-84
2023/09/16 09:21:43;;;;;;;6.47;5.78;;;20.80;99.20;;;;;;5032494;28;20385;-85
2023/09/16 09:24:08;;;;;;;5.85;5.22;;;20.90;99.20;;;;;;5018488;28;20068;-85
2023/09/16 09:26:34;;;;;;;7.55;5.18;;;20.90;99.20;;;;;;4996198;28;20105;-84
2023/09/16 09:29:00;;;;;;;6.15;5.32;;;21.00;99.20;;;;;;5015454;28;20108;-85
2023/09/16 09:31:27;;;;;;;7.63;6.15;;;21.00;99.20;;;;;;5016001;28;20418;-85
2023/09/16 09:33:53;;;;;;;8.43;5.57;;;21.10;99.20;;;;;;5032218;28;20030;-85
2023/09/16 09:36:18;;;;;;;7.88;5.00;;;21.20;99.10;;;;;;5016122;28;20021;-85
2023/09/16 09:38:45;;;;;;;5.18;4.57;;;21.20;99.10;;;;;;5032240;28;20469;-85
2023/09/16 09:41:12;;;;;;;6.82;5.03;;;21.30;99.10;;;;;;5032248;28;20049;-85
2023/09/16 09:43:38;;;;;;;7.13;5.95;;;21.30;99.00;;;;;;5032132;28;20026;-84
2023/09/16 09:46:04;;;;;;;8.00;6.25;;;21.30;98.90;;;;;;4999253;28;20018;-85
2023/09/16 09:48:31;;;;;;;7.97;5.95;;;21.40;98.70;;;;;;5015755;28;20112;-86
2023/09/16 09:50:57;;;;;;;9.88;6.38;;;21.50;98.70;;;;;;5034841;28;20080;-88
2023/09/16 09:53:28;;;;;;;6.78;5.38;;;21.60;98.60;;;;;;5015931;28;20048;-76
2023/09/16 09:55:54;;;;;;;;;;;21.60;98.60;;;;;;5033712;28;20356;-79
2023/09/16 09:58:20;;;;;;;7.93;5.35;;;21.60;98.60;;;;;;5032019;28;20429;-76
2023/09/16 10:00:50;;;;;;;6.18;5.57;;;21.60;98.60;;;;;;5032287;28;20056;-76
2023/09/16 10:03:21;;;;;;;8.50;6.10;;;21.70;98.30;;;;;;5032775;28;20481;-76
2023/09/16 10:05:47;;;;;;;8.07;5.80;;;21.80;98.10;;;;;;5031684;28;20539;-76
2023/09/16 10:08:13;;;;;;;5.78;4.88;;;21.90;98.00;;;;;;5031529;28;20037;-76
2023/09/16 10:10:40;;;;;;;6.45;5.80;;;21.90;97.90;;;;;;5012299;28;20053;-76
2023/09/16 10:13:07;;;;;;;8.32;6.60;;;22.00;97.90;;;;;;5013553;28;20026;-76
2023/09/16 10:15:36;;;;;;;6.13;4.95;;;22.10;97.70;;;;;;5028591;28;20021;-76
2023/09/16 10:18:06;;;;;;;6.60;5.20;;;22.10;97.60;;;;;;5030256;28;20116;-76
2023/09/16 10:20:38;;;;;;;5.20;4.70;;;22.10;97.60;;;;;;5033576;28;20100;-77
2023/09/16 10:23:04;;;;;;;5.68;4.50;;;22.30;97.60;;;;;;5032674;28;20018;-76
2023/09/16 10:25:31;;;;;;;4.68;3.78;;;22.30;97.50;;;;;;5038034;28;20030;-76
2023/09/16 10:27:58;;;;;;;5.65;3.80;;;22.40;97.50;;;;;;5045588;28;20018;-78
2023/09/16 10:30:25;;;;;;;4.82;3.90;;;22.40;97.50;;;;;;5054333;28;20052;-77
2023/09/16 10:32:52;;;;;;;5.78;3.88;;;22.50;97.50;;;;;;5057038;28;20018;-76
2023/09/16 10:35:21;;;;;;;4.85;3.60;;;22.50;97.50;;;;;;5055922;28;20112;-76
2023/09/16 10:37:50;;;;;;;5.20;3.25;;;22.60;97.30;;;;;;5039889;28;20006;-76
2023/09/16 10:40:18;;;;;;;4.43;3.65;;;22.60;97.10;;;;;;5059083;28;20039;-76
2023/09/16 10:42:45;;;;;;;4.03;3.28;;;22.80;96.80;;;;;;5055111;28;20093;-75
2023/09/16 10:45:14;;;;;;;6.30;4.43;;;22.80;96.70;;;;;;5050833;28;20067;-75
2023/09/16 10:47:41;;;;;;;4.35;3.75;;;22.80;96.40;;;;;;5041418;28;20036;-76
2023/09/16 10:50:07;;;;;;;3.63;2.70;;;22.90;96.20;;;;;;5035715;28;20030;-76
2023/09/16 10:52:38;;;;;;;5.20;3.25;;;22.90;96.10;;;;;;5036536;28;20013;-76
2023/09/16 10:55:09;;;;;;;4.20;3.03;;;23.00;95.90;;;;;;5036378;28;20025;-76
2023/09/16 10:57:39;;;;;;;4.20;3.05;;;23.10;95.80;;;;;;5036647;28;20025;-77
2023/09/16 11:00:10;;;;;;;3.33;2.88;;;23.20;95.70;;;;;;5036571;28;20022;-77
2023/09/16 11:02:38;;;;;;;;;;;23.20;95.60;;;;;;5035900;28;20052;-77
2023/09/16 11:05:04;;;;;;;3.15;2.60;;;23.30;95.00;;;;;;5046869;28;19912;-77
2023/09/16 11:07:31;;;;;;;4.43;2.88;;;23.30;95.10;;;;;;5038488;28;20036;-77
2023/09/16 11:09:58;;;;;;;3.50;2.60;;;23.40;95.10;;;;;;5022054;28;20025;-77
2023/09/16 11:12:24;;;;;;;4.15;2.70;;;23.40;94.90;;;;;;5038444;28;20164;-78
2023/09/16 11:14:50;;;;;;;4.55;2.72;;;23.50;94.40;;;;;;5038651;28;20033;-78
2023/09/16 11:17:15;;;;;;;3.30;2.70;;;23.50;94.40;;;;;;5056109;28;20059;-77
2023/09/16 11:19:42;;;;;;;3.95;2.65;;;23.60;94.20;;;;;;5056295;28;20029;-77
2023/09/16 11:22:09;;;;;;;3.67;2.80;;;23.60;94.20;;;;;;5038393;28;20070;-78
2023/09/16 11:24:36;;;;;;;4.57;2.60;;;23.60;93.90;;;;;;5038050;28;20115;-78
2023/09/16 11:27:02;;;;;;;3.58;3.28;;;23.80;94.30;;;;;;5055939;28;20029;-78
2023/09/16 11:29:28;;;;;;;3.55;2.90;;;23.80;93.90;;;;;;5037808;28;20035;-77
2023/09/16 11:31:55;;;;;;;5.30;3.22;;;23.90;93.70;;;;;;5037998;28;20400;-78
2023/09/16 11:34:27;;;;;;;4.10;3.13;;;24.00;93.50;;;;;;5055668;28;20021;-78
2023/09/16 11:36:58;;;;;;;4.43;3.83;;;24.00;93.50;;;;;;5038336;28;20377;-79
2023/09/16 11:39:40;;;;;;;4.60;3.00;;;24.00;93.20;;;;;;5037825;28;20064;-77
2023/09/16 11:42:07;;;;;;;5.28;3.60;;;24.10;93.40;;;;;;5055652;28;20103;-77
2023/09/16 11:44:36;;;;;;;3.95;3.47;;;24.10;93.50;;;;;;5038158;28;20028;-77
2023/09/16 11:47:03;;;;;;;6.18;4.13;;;24.20;93.50;;;;;;5055297;28;20025;-77
2023/09/16 11:49:33;;;;;;;4.20;3.55;;;24.20;93.40;;;;;;5021224;28;20033;-77
2023/09/16 11:52:00;;;;;;;4.18;3.70;;;24.30;93.20;;;;;;5055165;28;20388;-78
2023/09/16 11:54:26;;;;;;;4.93;3.33;;;24.30;93.30;;;;;;5055432;28;20036;-77
2023/09/16 11:56:53;;;;;;;4.47;4.00;;;24.40;93.30;;;;;;5037634;28;20032;-78
2023/09/16 11:59:19;;;;;;;4.85;3.80;;;24.40;93.30;;;;;;5055305;28;20025;-77
2023/09/16 12:01:45;;;;;;;5.18;3.67;;;24.40;93.20;;;;;;5037918;28;20540;-78
2023/09/16 12:04:12;;;;;;;4.88;3.67;;;24.40;93.20;;;;;;5033744;28;20037;-77
2023/09/16 12:06:38;;;;;;;3.80;3.40;;;24.40;93.30;;;;;;5035515;28;20026;-78
2023/09/16 12:09:10;;;;;;;3.85;3.13;;;24.50;93.20;;;;;;5034222;28;20036;-78
2023/09/16 12:11:37;;;;;;;3.78;3.22;;;24.50;93.20;;;;;;5035036;28;20021;-77
2023/09/16 12:14:04;;;;;;;3.35;3.05;;;24.50;93.30;;;;;;5035300;28;20025;-78
2023/09/16 12:16:30;;;;;;;4.53;3.22;;;24.60;93.40;;;;;;5033812;28;20360;-78
2023/09/16 12:18:56;;;;;;;3.95;3.58;;;24.60;93.50;;;;;;5034059;28;20024;-78
2023/09/16 12:21:22;;;;;;;5.40;4.25;;;24.60;93.40;;;;;;5035106;28;20105;-77
2023/09/16 12:23:49;;;;;;;4.10;3.70;;;24.60;93.30;;;;;;5038978;28;20045;-78
2023/09/16 12:26:15;;;;;;;3.97;3.08;;;24.60;93.20;;;;;;5034779;28;20048;-77
2023/09/16 12:28:40;;;;;;;4.97;3.30;;;24.70;93.30;;;;;;5040319;28;20022;-78
2023/09/16 12:31:09;;;;;;;4.20;3.33;;;24.70;93.30;;;;;;5045803;28;21093;-77
2023/09/16 12:33:48;;;;;;;5.07;4.15;;;24.70;93.20;;;;;;5057894;28;20013;-79
2023/09/16 12:36:19;;;;;;;3.45;2.85;;;24.70;92.90;;;;;;5058176;28;20021;-77
2023/09/16 12:38:46;;;;;;;4.07;2.80;;;24.70;93.00;;;;;;5057981;28;20006;-78
2023/09/16 12:41:12;;;;;;;4.05;3.50;;;24.70;93.20;;;;;;5053786;28;20081;-77